Jepson Prairie Reserve, California Weather observations

Data are for 10 minute period ending at time listed.
 Day   Time   Solar   Ave.   Ave.  Ave.  Vector  Max.   Baro.   Total    
  of    of     Rad.   Air    Rel.  Wind   Wind   Wind  Press.  Precip.   
Year   Day            Temp.  Hum.  Speed  Dir.   Gust                    
2017   (PST)  Kw/m2    F      %     mph   deg.    mph    mb.     in.     
-------------------------------------------------------------------------
 203   17:10   0.35   97.5    22   15.8   230    20.1   1006.4    0.00 
 203   17:20   0.33   96.3    23   16.4   226    19.5   1006.4    0.00 
 203   17:30   0.30   95.4    25   16.8   228    20.7   1006.1    0.00 
 203   17:40   0.27   94.4    27   17.1   226    21.5   1006.1    0.00 
 203   17:50   0.24   93.5    29   16.8   221    22.0   1006.1    0.00 
 203   18:00   0.21   92.5    30   17.7   221    22.9   1005.8    0.00 
 203   18:10   0.18   92.0    30   15.8   216    19.2   1005.8    0.00 
 203   18:20   0.15   91.3    31   15.3   219    19.4   1005.8    0.00 
 203   18:30   0.13   90.6    32   16.2   221    20.1   1005.8    0.00 
 203   18:40   0.09   89.1    32   14.9   219    20.0   1005.8    0.00 
 203   18:50   0.07   87.5    33   15.0   218    19.5   1005.8    0.00 
 203   19:00   0.06   86.6    34   14.2   215    17.8   1005.8    0.00 
 203   19:10   0.04   85.6    35   14.3   209    19.0   1005.8    0.00 
 203   19:20   0.02   84.4    35   16.1   209    19.7   1005.8    0.00 
 203   19:30   0.01   83.4    36   16.6   213    20.4   1006.1    0.00 
 203   19:40   0.00   82.4    38   16.0   215    20.0   1006.1    0.00 
 203   19:50   0.00   81.4    38   14.9   210    17.8   1006.1    0.00 
 203   20:00   0.00   80.5    39   14.3   205    17.4   1006.4    0.00 
 203   20:10   0.00   80.0    40   14.2   201    17.0   1006.4    0.00 
 203   20:20   0.00   78.9    42   14.9   203    18.3   1006.4    0.00 
 203   20:30   0.00   78.2    44   14.8   200    18.1   1006.8    0.00 
 203   20:40   0.00   77.7    45   15.4   200    19.0   1006.8    0.00 
 203   20:50   0.00   77.0    46   16.6   200    19.2   1006.8    0.00 
 203   21:00   0.00   76.1    48   15.2   197    17.9   1006.8    0.00 
 203   21:10   0.00   75.1    49   14.0   193    16.7   1007.1    0.00 
 203   21:20   0.00   74.6    50   15.3   194    19.0   1007.1    0.00 
 203   21:30   0.00   74.8    50   17.9   196    22.6   1007.1    0.00 
 203   21:40   0.00   74.6    50   17.2   196    21.0   1007.1    0.00 
 203   21:50   0.00   74.2    51   18.1   197    22.2   1007.1    0.00 
 203   22:00   0.00   74.2    51   17.8   194    21.5   1007.1    0.00 
 203   22:10   0.00   73.8    51   16.3   199    19.5   1007.1    0.00 
 203   22:20   0.00   73.3    52   15.5   200    19.5   1007.1    0.00 
 203   22:30   0.00   73.1    52   17.4   204    22.6   1006.8    0.00 
 203   22:40   0.00   73.1    52   17.7   205    20.9   1006.8    0.00 
 203   22:50   0.00   73.1    53   17.2   202    21.4   1007.1    0.00 
 203   23:00   0.00   72.9    53   16.7   204    20.2   1007.1    0.00 
 203   23:10   0.00   72.7    54   17.4   204    21.8   1007.1    0.00 
 203   23:20   0.00   72.3    54   17.3   201    21.2   1007.1    0.00 
 203   23:30   0.00   72.1    54   16.4   204    19.3   1007.1    0.00 
 203   23:40   0.00   72.2    54   15.5   203    18.8   1006.8    0.00 
 203   23:50   0.00   71.6    55   15.0   204    18.3   1006.8    0.00 
 204    0:00   0.00   71.4    55   15.4   205    19.1   1006.8    0.00 
 204    0:10   0.00   71.5    54   17.2   209    20.8   1006.8    0.00 
 204    0:20   0.00   70.5    55   15.9   211    20.2   1006.8    0.00 
 204    0:30   0.00   69.9    56   15.2   212    19.8   1006.8    0.00 
 204    0:40   0.00   69.5    55   14.5   215    17.9   1006.8    0.00 
 204    0:50   0.00   68.3    56   14.1   217    17.2   1006.4    0.00 
 204    1:00   0.00   68.4    54   12.9   212    16.1   1006.4    0.00 
 204    1:10   0.00   67.4    56   11.3   217    13.6   1006.4    0.00 
 204    1:20   0.00   66.6    57   11.4   215    13.9   1006.4    0.00 
 204    1:30   0.00   65.5    59   12.7   216    15.1   1006.1    0.00 
 204    1:40   0.00   65.0    60   13.7   213    16.2   1006.1    0.00 
 204    1:50   0.00   64.9    61   12.8   208    15.3   1006.1    0.00 
 204    2:00   0.00   65.0    60   13.1   213    15.7   1005.8    0.00 
 204    2:10   0.00   65.2    60   13.1   215    16.3   1005.8    0.00 
 204    2:20   0.00   64.6    64   12.2   218    14.8   1006.1    0.00 
 204    2:30   0.00   63.7    66    9.2   217    12.1   1006.1    0.00 
 204    2:40   0.00   62.9    67    7.6   216     9.9   1006.1    0.00 
 204    2:50   0.00   63.0    65    8.5   226    14.8   1006.1    0.00 
 204    3:00   0.00   64.9    61   12.9   224    18.2   1005.8    0.00 
 204    3:10   0.00   65.3    60   10.6   215    14.9   1006.1    0.00 
 204    3:20   0.00   65.1    61    9.5   205    14.1   1006.1    0.00 
 204    3:30   0.00   64.2    63    8.4   200    11.2   1006.1    0.00 
 204    3:40   0.00   63.0    66    6.0   184     9.6   1006.4    0.00 
 204    3:50   0.00   62.8    67    7.8   198    10.2   1006.1    0.00 
 204    4:00   0.00   63.1    67    8.2   206    10.2   1006.1    0.00 
 204    4:10   0.00   62.8    68    8.7   209    11.7   1006.1    0.00 
 204    4:20   0.00   62.0    70    6.2   205     9.2   1006.1    0.00 
 204    4:30   0.00   62.4    71    7.1   207     9.3   1006.1    0.00 
 204    4:40   0.00   62.0    71    6.7   201     8.0   1006.1    0.00 
 204    4:50   0.00   61.9    72    6.0   208     8.9   1006.4    0.00 
 204    5:00   0.00   62.1    70    7.5   213     9.9   1006.4    0.00 
 204    5:10   0.00   62.2    70    8.8   204    10.8   1006.4    0.00 
 204    5:20   0.01   62.4    69    9.6   197    11.2   1006.4    0.00 
 204    5:30   0.03   63.1    68    9.7   203    12.4   1006.4    0.00 
 204    5:40   0.03   63.6    67   10.3   208    12.1   1006.4    0.00 
 204    5:50   0.03   63.6    66    9.6   212    11.8   1006.4    0.00 
 204    6:00   0.03   64.3    64   10.2   214    12.5   1006.8    0.00 
 204    6:10   0.04   65.0    62   10.1   217    12.6   1006.8    0.00 
 204    6:20   0.06   65.6    61   11.5   226    15.6   1006.8    0.00 
 204    6:30   0.07   66.5    60   12.1   229    15.9   1007.1    0.00 
 204    6:40   0.18   67.7    59   11.3   230    15.8   1007.1    0.00 
 204    6:50   0.19   69.6    56   12.9   225    16.6   1007.5    0.00 
 204    7:00   0.23   70.7    54   14.3   219    18.1   1007.5    0.00 
 204    7:10   0.30   72.7    50   13.6   222    19.2   1007.8    0.00 
 204    7:20   0.34   74.8    46   15.1   227    19.4   1007.8    0.00 
 204    7:30   0.37   75.1    45   16.6   229    19.6   1008.1    0.00 
 204    7:40   0.40   75.8    44   15.2   235    19.1   1008.1    0.00 
 204    7:50   0.43   76.7    43   14.2   235    17.4   1008.1    0.00 
 204    8:00   0.46   77.3    42   13.1   236    16.1   1008.1    0.00 
 204    8:10   0.49   78.8    40   12.1   235    16.1   1008.1    0.00 
 204    8:20   0.52   79.9    38   11.4   243    14.5   1008.1    0.00 
 204    8:30   0.55   80.2    39    9.6   230    12.3   1008.1    0.00 
 204    8:40   0.57   80.6    38   10.1   222    12.3   1008.1    0.00 
 204    8:50   0.60   81.8    37   10.4   224    12.8   1007.8    0.00 
 204    9:00   0.63   83.3    34   10.7   228    14.2   1007.8    0.00 
 204    9:10   0.65   84.3    33   11.3   231    15.7   1007.8    0.00 
 204    9:20   0.68   84.6    32   12.7   230    15.5   1007.8    0.00 
 204    9:30   0.70   85.5    31   12.8   231    16.1   1007.5    0.00 
 204    9:40   0.72   86.0    30   12.8   233    16.2   1007.5    0.00 
 204    9:50   0.75   86.5    29   13.2   228    17.8   1007.5    0.00 
 204   10:00   0.77   87.3    28   11.8   232    15.1   1007.5    0.00 
 204   10:10   0.80   87.9    27   11.4   229    14.8   1007.1    0.00 
 204   10:20   0.81   88.7    27    9.8   221    13.0   1007.1    0.00 
 204   10:30   0.83   89.6    26    9.2   219    13.8   1007.1    0.00 
 204   10:40   0.85   90.3    25    9.0   221    12.9   1007.1    0.00 
 204   10:50   0.86   90.5    25    7.5   207    11.8   1007.1    0.00 
 204   11:00   0.87   91.5    24    6.8   232    11.2   1007.1    0.00 
 204   11:10   0.89   92.3    24    6.1   226    12.1   1006.8    0.00 
 204   11:20   0.90   92.7    23    7.0   228    10.3   1006.8    0.00 
 204   11:30   0.90   93.1    23    5.9   244    11.2   1006.8    0.00 
 204   11:40   0.91   93.8    22    6.0   221    12.6   1006.8    0.00 
 204   11:50   0.91   94.6    22    7.6   218    13.0   1006.4    0.00 
 204   12:00   0.92   94.7    22    7.4   221    12.5   1006.4    0.00 
 204   12:10   0.93   95.6    22    7.7   194    13.0   1006.4    0.00 
 204   12:20   0.93   96.1    21    7.4   206    14.5   1006.1    0.00 
 204   12:30   0.92   97.3    19    8.9   230    15.1   1006.1    0.00 
 204   12:40   0.92   97.3    17    7.8   248    13.5   1006.1    0.00 
 204   12:50   0.91   97.7    17    8.5   222    13.5   1005.8    0.00 
 204   13:00   0.91   97.9    17    8.7   234    14.2   1005.8    0.00 
 204   13:10   0.91   98.5    16    9.0   228    14.2   1005.8    0.00 
 204   13:20   0.90   98.7    16    9.0   214    14.2   1005.8    0.00 
 204   13:30   0.89   99.3    16   11.2   213    15.3   1005.8    0.00 
 204   13:40   0.87   99.2    16   10.9   217    15.7   1005.8    0.00 
 204   13:50   0.86   99.4    16   11.9   208    15.7   1005.4    0.00 
 204   14:00   0.85  100.2    16   12.0   201    17.5   1005.4    0.00 
 204   14:10   0.83  100.2    15   11.4   208    17.8   1005.4    0.00 
 204   14:20   0.81  100.2    15   13.0   211    17.5   1005.4    0.00 
 204   14:30   0.80   99.6    15   13.2   229    18.3   1005.4    0.00 
 204   14:40   0.77   99.5    16   13.5   232    18.0   1005.4    0.00 
 204   14:50   0.75   99.6    16   13.6   219    18.2   1005.4    0.00 
 204   15:00   0.73   99.3    15   14.3   228    18.9   1005.4    0.00 
 204   15:10   0.70   98.7    15   16.0   225    19.6   1005.1    0.00 
 204   15:20   0.68   98.6    15   17.3   226    21.8   1005.1    0.00 
 204   15:30   0.65   98.6    14   18.4   221    21.9   1004.7    0.00 
 204   15:40   0.62   98.3    15   17.6   224    22.1   1004.7    0.00 
 204   15:50   0.59   97.4    16   17.8   228    22.0   1004.7    0.00 
 204   16:00   0.57   96.5    18   18.1   228    22.2   1004.7    0.00 
 204   16:10   0.54   95.1    21   20.2   230    23.7   1004.7    0.00 
 204   16:20   0.51   94.2    23   19.3   229    24.0   1004.4    0.00 
 204   16:30   0.48   93.2    24   19.7   232    23.3   1004.4    0.00 
 204   16:40   0.44   92.2    25   20.8   230    25.4   1004.4    0.00 
 204   16:50   0.41   91.8    25   19.4   231    24.0   1004.1    0.00 
 204   17:00   0.38   91.3    25   17.2   226    22.3   1004.1    0.00 

Return to Jepson Prairie Reserve graphs page.


Western Regional Climate Center,wrcc@dri.edu